sensor_id;sensor_type;location;lat;lon;timestamp;temperature;humidity
3644;DHT22;1838;50.742;7.158;2022-12-07T00:02:01;6.60;99.90
3644;DHT22;1838;50.742;7.158;2022-12-07T00:04:26;6.50;99.90
3644;DHT22;1838;50.742;7.158;2022-12-07T00:06:53;6.50;99.90
3644;DHT22;1838;50.742;7.158;2022-12-07T00:09:19;6.50;99.90
3644;DHT22;1838;50.742;7.158;2022-12-07T00:11:48;6.60;99.90
3644;DHT22;1838;50.742;7.158;2022-12-07T00:14:16;6.60;99.90
3644;DHT22;1838;50.742;7.158;2022-12-07T00:16:42;6.60;99.90
3644;DHT22;1838;50.742;7.158;2022-12-07T00:19:09;6.50;99.90
3644;DHT22;1838;50.742;7.158;2022-12-07T00:21:35;6.60;99.90
3644;DHT22;1838;50.742;7.158;2022-12-07T00:24:02;6.60;99.90
3644;DHT22;1838;50.742;7.158;2022-12-07T00:26:31;6.60;99.90
3644;DHT22;1838;50.742;7.158;2022-12-07T00:28:59;6.60;99.90
3644;DHT22;1838;50.742;7.158;2022-12-07T00:31:35;6.60;99.90
3644;DHT22;1838;50.742;7.158;2022-12-07T00:34:07;6.60;99.90
3644;DHT22;1838;50.742;7.158;2022-12-07T00:36:33;6.60;99.90
3644;DHT22;1838;50.742;7.158;2022-12-07T00:38:59;6.60;99.90
3644;DHT22;1838;50.742;7.158;2022-12-07T00:41:26;6.60;99.90
3644;DHT22;1838;50.742;7.158;2022-12-07T00:43:53;6.50;99.90
3644;DHT22;1838;50.742;7.158;2022-12-07T00:46:19;6.50;99.90
3644;DHT22;1838;50.742;7.158;2022-12-07T00:48:46;6.60;99.90
3644;DHT22;1838;50.742;7.158;2022-12-07T00:51:13;6.60;99.90
3644;DHT22;1838;50.742;7.158;2022-12-07T00:53:39;6.50;99.90
3644;DHT22;1838;50.742;7.158;2022-12-07T00:56:06;6.60;99.90
3644;DHT22;1838;50.742;7.158;2022-12-07T00:58:32;6.60;99.90
3644;DHT22;1838;50.742;7.158;2022-12-07T01:01:00;6.60;99.90
3644;DHT22;1838;50.742;7.158;2022-12-07T01:03:26;6.60;99.90
3644;DHT22;1838;50.742;7.158;2022-12-07T01:05:54;6.60;99.90
3644;DHT22;1838;50.742;7.158;2022-12-07T01:08:21;6.60;99.90
3644;DHT22;1838;50.742;7.158;2022-12-07T01:10:46;6.60;99.90
3644;DHT22;1838;50.742;7.158;2022-12-07T01:13:12;6.60;99.90
3644;DHT22;1838;50.742;7.158;2022-12-07T01:15:42;6.70;99.90
3644;DHT22;1838;50.742;7.158;2022-12-07T01:18:08;6.60;99.90
3644;DHT22;1838;50.742;7.158;2022-12-07T01:20:34;6.60;99.90
3644;DHT22;1838;50.742;7.158;2022-12-07T01:22:59;6.60;99.90
3644;DHT22;1838;50.742;7.158;2022-12-07T01:25:25;6.60;99.90
3644;DHT22;1838;50.742;7.158;2022-12-07T01:27:50;6.60;99.90
3644;DHT22;1838;50.742;7.158;2022-12-07T01:30:16;6.60;99.90
3644;DHT22;1838;50.742;7.158;2022-12-07T01:32:42;6.60;99.90
3644;DHT22;1838;50.742;7.158;2022-12-07T01:35:07;6.60;99.90
3644;DHT22;1838;50.742;7.158;2022-12-07T01:37:37;6.60;99.90
3644;DHT22;1838;50.742;7.158;2022-12-07T01:40:04;6.70;99.90
3644;DHT22;1838;50.742;7.158;2022-12-07T01:42:30;6.70;99.90
3644;DHT22;1838;50.742;7.158;2022-12-07T01:47:52;6.70;99.90
3644;DHT22;1838;50.742;7.158;2022-12-07T01:50:19;6.60;99.90
3644;DHT22;1838;50.742;7.158;2022-12-07T01:52:48;6.60;99.90
3644;DHT22;1838;50.742;7.158;2022-12-07T01:55:14;6.60;99.90
3644;DHT22;1838;50.742;7.158;2022-12-07T01:57:47;6.70;99.90
3644;DHT22;1838;50.742;7.158;2022-12-07T02:00:14;6.70;99.90
3644;DHT22;1838;50.742;7.158;2022-12-07T02:02:47;6.70;99.90
3644;DHT22;1838;50.742;7.158;2022-12-07T02:05:13;6.70;99.90
3644;DHT22;1838;50.742;7.158;2022-12-07T02:07:39;6.60;99.90
3644;DHT22;1838;50.742;7.158;2022-12-07T02:10:32;6.70;99.90
3644;DHT22;1838;50.742;7.158;2022-12-07T02:13:14;6.70;99.90
3644;DHT22;1838;50.742;7.158;2022-12-07T02:16:02;6.60;99.90
3644;DHT22;1838;50.742;7.158;2022-12-07T02:24:30;6.60;99.90
3644;DHT22;1838;50.742;7.158;2022-12-07T02:30:14;6.60;99.90
3644;DHT22;1838;50.742;7.158;2022-12-07T02:32:45;6.60;99.90
3644;DHT22;1838;50.742;7.158;2022-12-07T02:35:18;6.70;99.90
3644;DHT22;1838;50.742;7.158;2022-12-07T02:40:25;6.70;99.90
3644;DHT22;1838;50.742;7.158;2022-12-07T02:43:18;6.80;99.90
3644;DHT22;1838;50.742;7.158;2022-12-07T02:45:45;6.80;99.90
3644;DHT22;1838;50.742;7.158;2022-12-07T02:48:13;6.80;99.90
3644;DHT22;1838;50.742;7.158;2022-12-07T02:50:45;6.80;99.90
3644;DHT22;1838;50.742;7.158;2022-12-07T02:53:36;6.90;99.90
3644;DHT22;1838;50.742;7.158;2022-12-07T03:01:35;6.80;99.90
3644;DHT22;1838;50.742;7.158;2022-12-07T03:04:46;6.80;99.90
3644;DHT22;1838;50.742;7.158;2022-12-07T03:12:37;6.80;99.90
3644;DHT22;1838;50.742;7.158;2022-12-07T03:15:18;6.80;99.90
3644;DHT22;1838;50.742;7.158;2022-12-07T03:17:46;6.80;99.90
3644;DHT22;1838;50.742;7.158;2022-12-07T03:20:14;6.80;99.90
3644;DHT22;1838;50.742;7.158;2022-12-07T03:22:42;6.80;99.90
3644;DHT22;1838;50.742;7.158;2022-12-07T03:25:11;6.80;99.90
3644;DHT22;1838;50.742;7.158;2022-12-07T03:30:17;6.80;99.90
3644;DHT22;1838;50.742;7.158;2022-12-07T03:36:01;6.80;99.90
3644;DHT22;1838;50.742;7.158;2022-12-07T03:38:37;6.80;99.90
3644;DHT22;1838;50.742;7.158;2022-12-07T03:41:26;6.80;99.90
3644;DHT22;1838;50.742;7.158;2022-12-07T03:43:54;6.80;99.90
3644;DHT22;1838;50.742;7.158;2022-12-07T03:46:44;6.70;99.90
3644;DHT22;1838;50.742;7.158;2022-12-07T03:49:23;6.70;99.90
3644;DHT22;1838;50.742;7.158;2022-12-07T03:54:23;6.70;99.90
3644;DHT22;1838;50.742;7.158;2022-12-07T03:56:50;6.70;99.90
3644;DHT22;1838;50.742;7.158;2022-12-07T03:59:17;6.70;99.90
3644;DHT22;1838;50.742;7.158;2022-12-07T04:01:44;6.70;99.90
3644;DHT22;1838;50.742;7.158;2022-12-07T04:04:10;6.70;99.90
3644;DHT22;1838;50.742;7.158;2022-12-07T04:06:36;6.70;99.90
3644;DHT22;1838;50.742;7.158;2022-12-07T04:09:01;6.70;99.90
3644;DHT22;1838;50.742;7.158;2022-12-07T04:11:27;6.60;99.90
3644;DHT22;1838;50.742;7.158;2022-12-07T04:13:52;6.70;99.90
3644;DHT22;1838;50.742;7.158;2022-12-07T04:16:36;6.60;99.90
3644;DHT22;1838;50.742;7.158;2022-12-07T04:19:02;6.50;99.90
3644;DHT22;1838;50.742;7.158;2022-12-07T04:21:27;6.60;99.90
3644;DHT22;1838;50.742;7.158;2022-12-07T04:23:53;6.60;99.90
3644;DHT22;1838;50.742;7.158;2022-12-07T04:26:18;6.50;99.90
3644;DHT22;1838;50.742;7.158;2022-12-07T04:28:44;6.50;99.90
3644;DHT22;1838;50.742;7.158;2022-12-07T04:31:09;6.50;99.90
3644;DHT22;1838;50.742;7.158;2022-12-07T04:33:35;6.50;99.90
3644;DHT22;1838;50.742;7.158;2022-12-07T04:36:00;6.50;99.90
3644;DHT22;1838;50.742;7.158;2022-12-07T04:38:26;6.50;99.90
3644;DHT22;1838;50.742;7.158;2022-12-07T04:40:51;6.40;99.90
3644;DHT22;1838;50.742;7.158;2022-12-07T04:43:17;6.50;99.90
3644;DHT22;1838;50.742;7.158;2022-12-07T04:45:49;6.50;99.90
3644;DHT22;1838;50.742;7.158;2022-12-07T04:48:15;6.50;99.90
3644;DHT22;1838;50.742;7.158;2022-12-07T04:50:41;6.40;99.90
3644;DHT22;1838;50.742;7.158;2022-12-07T04:53:06;6.40;99.90
3644;DHT22;1838;50.742;7.158;2022-12-07T04:55:32;6.40;99.90
3644;DHT22;1838;50.742;7.158;2022-12-07T04:57:57;6.50;99.90
3644;DHT22;1838;50.742;7.158;2022-12-07T05:00:23;6.50;99.90
3644;DHT22;1838;50.742;7.158;2022-12-07T05:02:48;6.40;99.90
3644;DHT22;1838;50.742;7.158;2022-12-07T05:05:14;6.40;99.90
3644;DHT22;1838;50.742;7.158;2022-12-07T05:07:39;6.50;99.90
3644;DHT22;1838;50.742;7.158;2022-12-07T05:10:07;6.50;99.90
3644;DHT22;1838;50.742;7.158;2022-12-07T05:12:32;6.50;99.90
3644;DHT22;1838;50.742;7.158;2022-12-07T05:14:58;6.50;99.90
3644;DHT22;1838;50.742;7.158;2022-12-07T05:17:23;6.60;99.90
3644;DHT22;1838;50.742;7.158;2022-12-07T05:19:49;6.50;99.90
3644;DHT22;1838;50.742;7.158;2022-12-07T05:22:15;6.50;99.90
3644;DHT22;1838;50.742;7.158;2022-12-07T05:24:40;6.50;99.90
3644;DHT22;1838;50.742;7.158;2022-12-07T05:27:06;6.60;99.90
3644;DHT22;1838;50.742;7.158;2022-12-07T05:29:31;6.60;99.90
3644;DHT22;1838;50.742;7.158;2022-12-07T05:31:57;6.60;99.90
3644;DHT22;1838;50.742;7.158;2022-12-07T05:34:23;6.60;99.90
3644;DHT22;1838;50.742;7.158;2022-12-07T05:36:48;6.70;99.90
3644;DHT22;1838;50.742;7.158;2022-12-07T05:39:15;6.60;99.90
3644;DHT22;1838;50.742;7.158;2022-12-07T05:41:41;6.70;99.90
3644;DHT22;1838;50.742;7.158;2022-12-07T05:44:25;6.70;99.90
3644;DHT22;1838;50.742;7.158;2022-12-07T05:46:50;6.60;99.90
3644;DHT22;1838;50.742;7.158;2022-12-07T05:49:16;6.60;99.90
3644;DHT22;1838;50.742;7.158;2022-12-07T05:51:41;6.60;99.90
3644;DHT22;1838;50.742;7.158;2022-12-07T05:54:07;6.60;99.90
3644;DHT22;1838;50.742;7.158;2022-12-07T05:56:32;6.60;99.90
3644;DHT22;1838;50.742;7.158;2022-12-07T05:58:58;6.60;99.90
3644;DHT22;1838;50.742;7.158;2022-12-07T06:01:42;6.70;99.90
3644;DHT22;1838;50.742;7.158;2022-12-07T06:04:08;6.70;99.90
3644;DHT22;1838;50.742;7.158;2022-12-07T06:06:33;6.70;99.90
3644;DHT22;1838;50.742;7.158;2022-12-07T06:08:59;6.60;99.90
3644;DHT22;1838;50.742;7.158;2022-12-07T06:11:24;6.60;99.90
3644;DHT22;1838;50.742;7.158;2022-12-07T06:14:08;6.50;99.90
3644;DHT22;1838;50.742;7.158;2022-12-07T06:16:34;6.50;99.90
3644;DHT22;1838;50.742;7.158;2022-12-07T06:18:59;6.50;99.90
3644;DHT22;1838;50.742;7.158;2022-12-07T06:21:25;6.60;99.90
3644;DHT22;1838;50.742;7.158;2022-12-07T06:23:52;6.60;99.90
3644;DHT22;1838;50.742;7.158;2022-12-07T06:26:17;6.60;99.90
3644;DHT22;1838;50.742;7.158;2022-12-07T06:28:43;6.60;99.90
3644;DHT22;1838;50.742;7.158;2022-12-07T06:31:09;6.50;99.90
3644;DHT22;1838;50.742;7.158;2022-12-07T06:33:34;6.50;99.90
3644;DHT22;1838;50.742;7.158;2022-12-07T06:36:00;6.50;99.90
3644;DHT22;1838;50.742;7.158;2022-12-07T06:38:26;6.50;99.90
3644;DHT22;1838;50.742;7.158;2022-12-07T06:40:51;6.50;99.90
3644;DHT22;1838;50.742;7.158;2022-12-07T06:43:17;6.50;99.90
3644;DHT22;1838;50.742;7.158;2022-12-07T06:45:42;6.60;99.90
3644;DHT22;1838;50.742;7.158;2022-12-07T06:48:08;6.60;99.90
3644;DHT22;1838;50.742;7.158;2022-12-07T06:50:33;6.60;99.90
3644;DHT22;1838;50.742;7.158;2022-12-07T06:52:59;6.50;99.90
3644;DHT22;1838;50.742;7.158;2022-12-07T06:55:24;6.60;99.90
3644;DHT22;1838;50.742;7.158;2022-12-07T06:57:50;6.50;99.90
3644;DHT22;1838;50.742;7.158;2022-12-07T07:00:16;6.50;99.90
3644;DHT22;1838;50.742;7.158;2022-12-07T07:02:41;6.50;99.90
3644;DHT22;1838;50.742;7.158;2022-12-07T07:05:07;6.50;99.90
3644;DHT22;1838;50.742;7.158;2022-12-07T07:07:32;6.50;99.90
3644;DHT22;1838;50.742;7.158;2022-12-07T07:09:58;6.40;99.90
3644;DHT22;1838;50.742;7.158;2022-12-07T07:12:23;6.40;99.90
3644;DHT22;1838;50.742;7.158;2022-12-07T07:14:49;6.40;99.90
3644;DHT22;1838;50.742;7.158;2022-12-07T07:17:14;6.40;99.90
3644;DHT22;1838;50.742;7.158;2022-12-07T07:19:40;6.40;99.90
3644;DHT22;1838;50.742;7.158;2022-12-07T07:22:05;6.40;99.90
3644;DHT22;1838;50.742;7.158;2022-12-07T07:24:31;6.30;99.90
3644;DHT22;1838;50.742;7.158;2022-12-07T07:26:56;6.30;99.90
3644;DHT22;1838;50.742;7.158;2022-12-07T07:29:22;6.30;99.90
3644;DHT22;1838;50.742;7.158;2022-12-07T07:31:48;6.30;99.90
3644;DHT22;1838;50.742;7.158;2022-12-07T07:34:13;6.30;99.90
3644;DHT22;1838;50.742;7.158;2022-12-07T07:36:39;6.30;99.90
3644;DHT22;1838;50.742;7.158;2022-12-07T07:39:04;6.30;99.90
3644;DHT22;1838;50.742;7.158;2022-12-07T07:41:31;6.30;99.90
3644;DHT22;1838;50.742;7.158;2022-12-07T07:43:57;6.30;99.90
3644;DHT22;1838;50.742;7.158;2022-12-07T07:46:22;6.30;99.90
3644;DHT22;1838;50.742;7.158;2022-12-07T07:48:47;6.30;99.90
3644;DHT22;1838;50.742;7.158;2022-12-07T07:51:13;6.30;99.90
3644;DHT22;1838;50.742;7.158;2022-12-07T07:53:39;6.30;99.90
3644;DHT22;1838;50.742;7.158;2022-12-07T07:56:05;6.30;99.90
3644;DHT22;1838;50.742;7.158;2022-12-07T07:58:30;6.30;99.90
3644;DHT22;1838;50.742;7.158;2022-12-07T08:00:56;6.30;99.90
3644;DHT22;1838;50.742;7.158;2022-12-07T08:03:21;6.30;99.90
3644;DHT22;1838;50.742;7.158;2022-12-07T08:05:47;6.30;99.90
3644;DHT22;1838;50.742;7.158;2022-12-07T08:08:12;6.30;99.90
3644;DHT22;1838;50.742;7.158;2022-12-07T08:10:38;6.30;99.90
3644;DHT22;1838;50.742;7.158;2022-12-07T08:13:04;6.30;99.90
3644;DHT22;1838;50.742;7.158;2022-12-07T08:15:46;6.40;99.90
3644;DHT22;1838;50.742;7.158;2022-12-07T08:18:13;6.40;99.90
3644;DHT22;1838;50.742;7.158;2022-12-07T08:20:40;6.40;99.90
3644;DHT22;1838;50.742;7.158;2022-12-07T08:23:07;6.40;99.90
3644;DHT22;1838;50.742;7.158;2022-12-07T08:25:33;6.40;99.90
3644;DHT22;1838;50.742;7.158;2022-12-07T08:27:59;6.50;99.90
3644;DHT22;1838;50.742;7.158;2022-12-07T08:30:26;6.50;99.90
3644;DHT22;1838;50.742;7.158;2022-12-07T08:32:51;6.50;99.90
3644;DHT22;1838;50.742;7.158;2022-12-07T08:35:17;6.50;99.90
3644;DHT22;1838;50.742;7.158;2022-12-07T08:37:43;6.50;99.90
3644;DHT22;1838;50.742;7.158;2022-12-07T08:40:09;6.60;99.90
3644;DHT22;1838;50.742;7.158;2022-12-07T08:42:35;6.60;99.90
3644;DHT22;1838;50.742;7.158;2022-12-07T08:45:10;6.50;99.90
3644;DHT22;1838;50.742;7.158;2022-12-07T08:47:40;6.60;99.90
3644;DHT22;1838;50.742;7.158;2022-12-07T08:50:07;6.60;99.90
3644;DHT22;1838;50.742;7.158;2022-12-07T08:52:35;6.60;99.90
3644;DHT22;1838;50.742;7.158;2022-12-07T08:55:01;6.60;99.90
3644;DHT22;1838;50.742;7.158;2022-12-07T08:57:28;6.70;99.90
3644;DHT22;1838;50.742;7.158;2022-12-07T08:59:54;6.70;99.90
3644;DHT22;1838;50.742;7.158;2022-12-07T09:02:20;6.80;99.90
3644;DHT22;1838;50.742;7.158;2022-12-07T09:04:45;6.80;99.90
3644;DHT22;1838;50.742;7.158;2022-12-07T09:07:11;6.80;99.90
3644;DHT22;1838;50.742;7.158;2022-12-07T09:09:37;6.80;99.90
3644;DHT22;1838;50.742;7.158;2022-12-07T09:12:02;6.90;99.90
3644;DHT22;1838;50.742;7.158;2022-12-07T09:14:28;6.80;99.90
3644;DHT22;1838;50.742;7.158;2022-12-07T09:16:53;6.80;99.90
3644;DHT22;1838;50.742;7.158;2022-12-07T09:19:19;6.80;99.90
3644;DHT22;1838;50.742;7.158;2022-12-07T09:21:45;6.80;99.90
3644;DHT22;1838;50.742;7.158;2022-12-07T09:24:12;6.80;99.90
3644;DHT22;1838;50.742;7.158;2022-12-07T09:26:37;6.80;99.90
3644;DHT22;1838;50.742;7.158;2022-12-07T09:29:04;6.80;99.90
3644;DHT22;1838;50.742;7.158;2022-12-07T09:31:30;6.80;99.90
3644;DHT22;1838;50.742;7.158;2022-12-07T09:34:00;6.80;99.90
3644;DHT22;1838;50.742;7.158;2022-12-07T09:36:26;6.80;99.90
3644;DHT22;1838;50.742;7.158;2022-12-07T09:38:52;6.90;99.90
3644;DHT22;1838;50.742;7.158;2022-12-07T09:41:18;6.90;99.90
3644;DHT22;1838;50.742;7.158;2022-12-07T09:43:44;7.00;99.90
3644;DHT22;1838;50.742;7.158;2022-12-07T09:46:16;7.00;99.90
3644;DHT22;1838;50.742;7.158;2022-12-07T09:48:44;7.00;99.90
3644;DHT22;1838;50.742;7.158;2022-12-07T09:51:16;7.10;99.90
3644;DHT22;1838;50.742;7.158;2022-12-07T09:53:42;7.10;99.90
3644;DHT22;1838;50.742;7.158;2022-12-07T09:56:12;7.10;99.90
3644;DHT22;1838;50.742;7.158;2022-12-07T09:58:39;7.20;99.90
3644;DHT22;1838;50.742;7.158;2022-12-07T10:03:47;7.20;99.90
3644;DHT22;1838;50.742;7.158;2022-12-07T10:06:13;7.10;99.90
3644;DHT22;1838;50.742;7.158;2022-12-07T10:08:39;7.10;99.90
3644;DHT22;1838;50.742;7.158;2022-12-07T10:11:06;7.10;99.90
3644;DHT22;1838;50.742;7.158;2022-12-07T10:13:42;7.10;99.90
3644;DHT22;1838;50.742;7.158;2022-12-07T10:16:38;7.00;99.90
3644;DHT22;1838;50.742;7.158;2022-12-07T10:22:12;7.20;99.90
3644;DHT22;1838;50.742;7.158;2022-12-07T10:24:39;7.20;99.90
3644;DHT22;1838;50.742;7.158;2022-12-07T10:27:17;7.20;99.90
3644;DHT22;1838;50.742;7.158;2022-12-07T10:29:49;7.30;99.90
3644;DHT22;1838;50.742;7.158;2022-12-07T10:34:41;7.40;99.90
3644;DHT22;1838;50.742;7.158;2022-12-07T10:37:17;7.50;99.90
3644;DHT22;1838;50.742;7.158;2022-12-07T10:42:24;7.60;99.90
3644;DHT22;1838;50.742;7.158;2022-12-07T10:53:34;7.70;99.90
3644;DHT22;1838;50.742;7.158;2022-12-07T11:05:06;7.80;99.90
3644;DHT22;1838;50.742;7.158;2022-12-07T11:07:56;7.80;99.90
3644;DHT22;1838;50.742;7.158;2022-12-07T11:10:41;7.80;99.90
3644;DHT22;1838;50.742;7.158;2022-12-07T11:16:20;7.90;99.90
3644;DHT22;1838;50.742;7.158;2022-12-07T11:19:10;8.00;99.90
3644;DHT22;1838;50.742;7.158;2022-12-07T11:29:40;8.20;99.90
3644;DHT22;1838;50.742;7.158;2022-12-07T11:32:34;8.10;99.90
3644;DHT22;1838;50.742;7.158;2022-12-07T11:35:15;8.20;99.90
3644;DHT22;1838;50.742;7.158;2022-12-07T11:37:46;8.20;99.90
3644;DHT22;1838;50.742;7.158;2022-12-07T11:43:14;8.20;99.90
3644;DHT22;1838;50.742;7.158;2022-12-07T11:45:47;8.20;99.90
3644;DHT22;1838;50.742;7.158;2022-12-07T11:50:52;8.30;99.90
3644;DHT22;1838;50.742;7.158;2022-12-07T11:53:37;8.30;99.90
3644;DHT22;1838;50.742;7.158;2022-12-07T11:56:09;8.30;99.90
3644;DHT22;1838;50.742;7.158;2022-12-07T11:59:00;8.30;99.90
3644;DHT22;1838;50.742;7.158;2022-12-07T12:06:37;8.40;99.90
3644;DHT22;1838;50.742;7.158;2022-12-07T12:09:19;8.40;99.90
3644;DHT22;1838;50.742;7.158;2022-12-07T12:23:00;8.40;99.90
3644;DHT22;1838;50.742;7.158;2022-12-07T12:25:34;8.40;99.90
3644;DHT22;1838;50.742;7.158;2022-12-07T12:28:01;8.40;99.90
3644;DHT22;1838;50.742;7.158;2022-12-07T12:30:37;8.40;99.90
3644;DHT22;1838;50.742;7.158;2022-12-07T12:33:16;8.50;99.90
3644;DHT22;1838;50.742;7.158;2022-12-07T12:35:44;8.50;99.90
3644;DHT22;1838;50.742;7.158;2022-12-07T12:38:29;8.60;99.90
3644;DHT22;1838;50.742;7.158;2022-12-07T12:40:59;8.60;99.90
3644;DHT22;1838;50.742;7.158;2022-12-07T12:51:49;8.90;99.90
3644;DHT22;1838;50.742;7.158;2022-12-07T12:56:47;8.80;99.90
3644;DHT22;1838;50.742;7.158;2022-12-07T12:59:32;8.80;99.90
3644;DHT22;1838;50.742;7.158;2022-12-07T13:15:40;8.70;99.90
3644;DHT22;1838;50.742;7.158;2022-12-07T13:23:31;8.40;99.90
3644;DHT22;1838;50.742;7.158;2022-12-07T13:33:46;8.40;99.90
3644;DHT22;1838;50.742;7.158;2022-12-07T13:39:15;8.50;99.90
3644;DHT22;1838;50.742;7.158;2022-12-07T13:41:43;8.50;99.90
3644;DHT22;1838;50.742;7.158;2022-12-07T13:44:16;8.40;99.90
3644;DHT22;1838;50.742;7.158;2022-12-07T13:47:15;8.40;99.90
3644;DHT22;1838;50.742;7.158;2022-12-07T13:49:51;8.30;99.90
3644;DHT22;1838;50.742;7.158;2022-12-07T13:52:18;8.30;99.90
3644;DHT22;1838;50.742;7.158;2022-12-07T13:57:33;8.30;99.90
3644;DHT22;1838;50.742;7.158;2022-12-07T14:00:05;8.30;99.90
3644;DHT22;1838;50.742;7.158;2022-12-07T14:02:33;8.30;99.90
3644;DHT22;1838;50.742;7.158;2022-12-07T14:05:25;8.30;99.90
3644;DHT22;1838;50.742;7.158;2022-12-07T14:08:00;8.30;99.90
3644;DHT22;1838;50.742;7.158;2022-12-07T14:10:31;8.40;99.90
3644;DHT22;1838;50.742;7.158;2022-12-07T14:12:59;8.40;99.90
3644;DHT22;1838;50.742;7.158;2022-12-07T14:16:04;8.40;99.90
3644;DHT22;1838;50.742;7.158;2022-12-07T14:18:40;8.30;99.90
3644;DHT22;1838;50.742;7.158;2022-12-07T14:24:01;8.30;99.90
3644;DHT22;1838;50.742;7.158;2022-12-07T14:26:28;8.40;99.90
3644;DHT22;1838;50.742;7.158;2022-12-07T14:29:34;8.30;99.90
3644;DHT22;1838;50.742;7.158;2022-12-07T14:32:34;8.30;99.90
3644;DHT22;1838;50.742;7.158;2022-12-07T14:35:11;8.20;99.90
3644;DHT22;1838;50.742;7.158;2022-12-07T14:37:39;8.20;99.90
3644;DHT22;1838;50.742;7.158;2022-12-07T14:40:05;8.10;99.90
3644;DHT22;1838;50.742;7.158;2022-12-07T14:42:32;8.10;99.90
3644;DHT22;1838;50.742;7.158;2022-12-07T14:44:58;8.10;99.90
3644;DHT22;1838;50.742;7.158;2022-12-07T14:47:25;8.00;99.90
3644;DHT22;1838;50.742;7.158;2022-12-07T14:49:51;8.00;99.90
3644;DHT22;1838;50.742;7.158;2022-12-07T14:52:27;8.00;99.90
3644;DHT22;1838;50.742;7.158;2022-12-07T14:54:53;7.90;99.90
3644;DHT22;1838;50.742;7.158;2022-12-07T14:57:18;8.00;99.90
3644;DHT22;1838;50.742;7.158;2022-12-07T14:59:44;8.00;99.90
3644;DHT22;1838;50.742;7.158;2022-12-07T15:02:12;8.00;99.90
3644;DHT22;1838;50.742;7.158;2022-12-07T15:04:37;8.10;99.90
3644;DHT22;1838;50.742;7.158;2022-12-07T15:07:06;8.10;99.90
3644;DHT22;1838;50.742;7.158;2022-12-07T15:09:31;8.10;99.90
3644;DHT22;1838;50.742;7.158;2022-12-07T15:11:57;8.10;99.90
3644;DHT22;1838;50.742;7.158;2022-12-07T15:14:23;8.10;99.90
3644;DHT22;1838;50.742;7.158;2022-12-07T15:16:48;8.10;99.90
3644;DHT22;1838;50.742;7.158;2022-12-07T15:19:17;8.10;99.90
3644;DHT22;1838;50.742;7.158;2022-12-07T15:21:43;8.10;99.90
3644;DHT22;1838;50.742;7.158;2022-12-07T15:24:10;8.00;99.90
3644;DHT22;1838;50.742;7.158;2022-12-07T15:26:36;8.00;99.90
3644;DHT22;1838;50.742;7.158;2022-12-07T15:29:02;8.00;99.90
3644;DHT22;1838;50.742;7.158;2022-12-07T15:31:27;8.00;99.90
3644;DHT22;1838;50.742;7.158;2022-12-07T15:33:53;8.00;99.90
3644;DHT22;1838;50.742;7.158;2022-12-07T15:36:24;7.90;99.90
3644;DHT22;1838;50.742;7.158;2022-12-07T15:38:50;7.80;99.90
3644;DHT22;1838;50.742;7.158;2022-12-07T15:41:17;7.80;99.90
3644;DHT22;1838;50.742;7.158;2022-12-07T15:43:54;7.80;99.90
3644;DHT22;1838;50.742;7.158;2022-12-07T15:46:40;7.60;99.90
3644;DHT22;1838;50.742;7.158;2022-12-07T15:49:12;7.60;99.90
3644;DHT22;1838;50.742;7.158;2022-12-07T15:51:38;7.60;99.90
3644;DHT22;1838;50.742;7.158;2022-12-07T15:54:04;7.50;99.90
3644;DHT22;1838;50.742;7.158;2022-12-07T15:56:29;7.50;99.90
3644;DHT22;1838;50.742;7.158;2022-12-07T15:58:57;7.50;99.90
3644;DHT22;1838;50.742;7.158;2022-12-07T16:01:22;7.60;99.90
3644;DHT22;1838;50.742;7.158;2022-12-07T16:03:48;7.60;99.90
3644;DHT22;1838;50.742;7.158;2022-12-07T16:06:17;7.60;99.90
3644;DHT22;1838;50.742;7.158;2022-12-07T16:08:46;7.60;99.90
3644;DHT22;1838;50.742;7.158;2022-12-07T16:11:12;7.60;99.90
3644;DHT22;1838;50.742;7.158;2022-12-07T16:13:38;7.50;99.90
3644;DHT22;1838;50.742;7.158;2022-12-07T16:16:06;7.50;99.90
3644;DHT22;1838;50.742;7.158;2022-12-07T16:18:32;7.50;99.90
3644;DHT22;1838;50.742;7.158;2022-12-07T16:20:58;7.50;99.90
3644;DHT22;1838;50.742;7.158;2022-12-07T16:23:24;7.50;99.90
3644;DHT22;1838;50.742;7.158;2022-12-07T16:25:49;7.50;99.90
3644;DHT22;1838;50.742;7.158;2022-12-07T16:28:15;7.50;99.90
3644;DHT22;1838;50.742;7.158;2022-12-07T16:30:40;7.50;99.90
3644;DHT22;1838;50.742;7.158;2022-12-07T16:33:06;7.50;99.90
3644;DHT22;1838;50.742;7.158;2022-12-07T16:35:31;7.50;99.90
3644;DHT22;1838;50.742;7.158;2022-12-07T16:37:57;7.60;99.90
3644;DHT22;1838;50.742;7.158;2022-12-07T16:40:22;7.50;99.90
3644;DHT22;1838;50.742;7.158;2022-12-07T16:42:47;7.60;99.90
3644;DHT22;1838;50.742;7.158;2022-12-07T16:45:13;7.60;99.90
3644;DHT22;1838;50.742;7.158;2022-12-07T16:47:39;7.50;99.90
3644;DHT22;1838;50.742;7.158;2022-12-07T16:50:05;7.50;99.90
3644;DHT22;1838;50.742;7.158;2022-12-07T16:52:33;7.50;99.90
3644;DHT22;1838;50.742;7.158;2022-12-07T16:54:58;7.50;99.90
3644;DHT22;1838;50.742;7.158;2022-12-07T16:57:24;7.50;99.90
3644;DHT22;1838;50.742;7.158;2022-12-07T16:59:51;7.50;99.90
3644;DHT22;1838;50.742;7.158;2022-12-07T17:02:17;7.50;99.90
3644;DHT22;1838;50.742;7.158;2022-12-07T17:04:42;7.40;99.90
3644;DHT22;1838;50.742;7.158;2022-12-07T17:07:08;7.40;99.90
3644;DHT22;1838;50.742;7.158;2022-12-07T17:09:34;7.30;99.90
3644;DHT22;1838;50.742;7.158;2022-12-07T17:12:00;7.30;99.90
3644;DHT22;1838;50.742;7.158;2022-12-07T17:14:26;7.20;99.90
3644;DHT22;1838;50.742;7.158;2022-12-07T17:17:10;7.20;99.90
3644;DHT22;1838;50.742;7.158;2022-12-07T17:19:36;7.20;99.90
3644;DHT22;1838;50.742;7.158;2022-12-07T17:22:01;7.20;99.90
3644;DHT22;1838;50.742;7.158;2022-12-07T17:24:27;7.20;99.90
3644;DHT22;1838;50.742;7.158;2022-12-07T17:26:52;7.20;99.90
3644;DHT22;1838;50.742;7.158;2022-12-07T17:29:18;7.20;99.90
3644;DHT22;1838;50.742;7.158;2022-12-07T17:31:45;7.20;99.90
3644;DHT22;1838;50.742;7.158;2022-12-07T17:34:13;7.20;99.90
3644;DHT22;1838;50.742;7.158;2022-12-07T17:36:39;7.10;99.90
3644;DHT22;1838;50.742;7.158;2022-12-07T17:39:09;7.10;99.90
3644;DHT22;1838;50.742;7.158;2022-12-07T17:41:36;7.10;99.90
3644;DHT22;1838;50.742;7.158;2022-12-07T17:44:21;7.10;99.90
3644;DHT22;1838;50.742;7.158;2022-12-07T17:46:50;7.10;99.90
3644;DHT22;1838;50.742;7.158;2022-12-07T17:49:20;7.00;99.90
3644;DHT22;1838;50.742;7.158;2022-12-07T17:51:45;7.10;99.90
3644;DHT22;1838;50.742;7.158;2022-12-07T17:54:30;7.10;99.90
3644;DHT22;1838;50.742;7.158;2022-12-07T17:56:55;7.10;99.90
3644;DHT22;1838;50.742;7.158;2022-12-07T17:59:21;7.10;99.90
3644;DHT22;1838;50.742;7.158;2022-12-07T18:01:47;7.10;99.90
3644;DHT22;1838;50.742;7.158;2022-12-07T18:04:12;7.00;99.90
3644;DHT22;1838;50.742;7.158;2022-12-07T18:06:38;7.00;99.90
3644;DHT22;1838;50.742;7.158;2022-12-07T18:09:04;7.10;99.90
3644;DHT22;1838;50.742;7.158;2022-12-07T18:11:30;7.00;99.90
3644;DHT22;1838;50.742;7.158;2022-12-07T18:13:56;6.90;99.90
3644;DHT22;1838;50.742;7.158;2022-12-07T18:16:25;6.90;99.90
3644;DHT22;1838;50.742;7.158;2022-12-07T18:18:52;6.90;99.90
3644;DHT22;1838;50.742;7.158;2022-12-07T18:21:21;6.90;99.90
3644;DHT22;1838;50.742;7.158;2022-12-07T18:23:49;6.80;99.90
3644;DHT22;1838;50.742;7.158;2022-12-07T18:26:16;6.80;99.90
3644;DHT22;1838;50.742;7.158;2022-12-07T18:28:43;6.70;99.90
3644;DHT22;1838;50.742;7.158;2022-12-07T18:31:09;6.60;99.90
3644;DHT22;1838;50.742;7.158;2022-12-07T18:33:35;6.70;99.90
3644;DHT22;1838;50.742;7.158;2022-12-07T18:36:02;6.70;99.90
3644;DHT22;1838;50.742;7.158;2022-12-07T18:38:29;6.70;99.90
3644;DHT22;1838;50.742;7.158;2022-12-07T18:40:54;6.50;99.90
3644;DHT22;1838;50.742;7.158;2022-12-07T18:43:20;6.60;99.90
3644;DHT22;1838;50.742;7.158;2022-12-07T18:45:46;6.60;99.90
3644;DHT22;1838;50.742;7.158;2022-12-07T18:48:14;6.60;99.90
3644;DHT22;1838;50.742;7.158;2022-12-07T18:50:40;6.70;99.90